sensor_id;sensor_type;location;lat;lon;timestamp;temperature;humidity
53310;DHT22;39197;53.200;5.792;2023-07-31T00:02:03;16.90;99.90
53310;DHT22;39197;53.200;5.792;2023-07-31T00:04:29;16.80;99.90
53310;DHT22;39197;53.200;5.792;2023-07-31T00:06:54;16.80;99.90
53310;DHT22;39197;53.200;5.792;2023-07-31T00:09:20;16.80;99.90
53310;DHT22;39197;53.200;5.792;2023-07-31T00:11:46;16.80;99.90
53310;DHT22;39197;53.200;5.792;2023-07-31T00:14:11;16.80;99.90
53310;DHT22;39197;53.200;5.792;2023-07-31T00:16:37;16.80;99.90
53310;DHT22;39197;53.200;5.792;2023-07-31T00:19:02;16.80;99.90
53310;DHT22;39197;53.200;5.792;2023-07-31T00:21:28;16.80;99.90
53310;DHT22;39197;53.200;5.792;2023-07-31T00:23:53;16.80;99.90
53310;DHT22;39197;53.200;5.792;2023-07-31T00:26:19;16.80;99.90
53310;DHT22;39197;53.200;5.792;2023-07-31T00:28:45;16.80;99.90
53310;DHT22;39197;53.200;5.792;2023-07-31T00:31:10;16.80;99.90
53310;DHT22;39197;53.200;5.792;2023-07-31T00:33:36;16.80;99.90
53310;DHT22;39197;53.200;5.792;2023-07-31T00:36:02;16.80;99.90
53310;DHT22;39197;53.200;5.792;2023-07-31T00:38:27;16.70;99.90
53310;DHT22;39197;53.200;5.792;2023-07-31T00:40:53;16.70;99.90
53310;DHT22;39197;53.200;5.792;2023-07-31T00:43:19;16.70;99.90
53310;DHT22;39197;53.200;5.792;2023-07-31T00:45:44;16.70;99.90
53310;DHT22;39197;53.200;5.792;2023-07-31T00:48:10;16.70;99.90
53310;DHT22;39197;53.200;5.792;2023-07-31T00:50:36;16.70;99.90
53310;DHT22;39197;53.200;5.792;2023-07-31T00:53:03;16.60;99.90
53310;DHT22;39197;53.200;5.792;2023-07-31T00:55:30;16.60;99.90
53310;DHT22;39197;53.200;5.792;2023-07-31T00:57:56;16.60;99.90
53310;DHT22;39197;53.200;5.792;2023-07-31T01:00:22;16.60;99.90
53310;DHT22;39197;53.200;5.792;2023-07-31T01:02:49;16.60;99.90
53310;DHT22;39197;53.200;5.792;2023-07-31T01:05:15;16.50;99.90
53310;DHT22;39197;53.200;5.792;2023-07-31T01:10:44;16.50;99.90
53310;DHT22;39197;53.200;5.792;2023-07-31T01:13:11;16.50;99.90
53310;DHT22;39197;53.200;5.792;2023-07-31T01:15:37;16.50;99.90
53310;DHT22;39197;53.200;5.792;2023-07-31T01:18:04;16.50;99.90
53310;DHT22;39197;53.200;5.792;2023-07-31T01:20:30;16.40;99.90
53310;DHT22;39197;53.200;5.792;2023-07-31T01:26:03;16.40;99.90
53310;DHT22;39197;53.200;5.792;2023-07-31T01:28:44;16.40;99.90
53310;DHT22;39197;53.200;5.792;2023-07-31T01:31:18;16.40;99.90
53310;DHT22;39197;53.200;5.792;2023-07-31T01:33:45;16.30;99.90
53310;DHT22;39197;53.200;5.792;2023-07-31T01:36:12;16.30;99.90
53310;DHT22;39197;53.200;5.792;2023-07-31T01:38:37;16.30;99.90
53310;DHT22;39197;53.200;5.792;2023-07-31T01:41:03;16.30;99.90
53310;DHT22;39197;53.200;5.792;2023-07-31T01:43:28;16.20;99.90
53310;DHT22;39197;53.200;5.792;2023-07-31T01:45:54;16.20;99.90
53310;DHT22;39197;53.200;5.792;2023-07-31T01:48:20;16.20;99.90
53310;DHT22;39197;53.200;5.792;2023-07-31T01:50:45;16.20;99.90
53310;DHT22;39197;53.200;5.792;2023-07-31T01:53:11;16.20;99.90
53310;DHT22;39197;53.200;5.792;2023-07-31T01:55:37;16.20;99.90
53310;DHT22;39197;53.200;5.792;2023-07-31T01:58:03;16.20;99.90
53310;DHT22;39197;53.200;5.792;2023-07-31T02:00:29;16.10;99.90
53310;DHT22;39197;53.200;5.792;2023-07-31T02:02:54;16.10;99.90
53310;DHT22;39197;53.200;5.792;2023-07-31T02:05:20;16.10;99.90
53310;DHT22;39197;53.200;5.792;2023-07-31T02:07:46;16.10;99.90
53310;DHT22;39197;53.200;5.792;2023-07-31T02:10:11;16.10;99.90
53310;DHT22;39197;53.200;5.792;2023-07-31T02:12:37;16.00;99.90
53310;DHT22;39197;53.200;5.792;2023-07-31T02:15:03;16.00;99.90
53310;DHT22;39197;53.200;5.792;2023-07-31T02:17:28;16.00;99.90
53310;DHT22;39197;53.200;5.792;2023-07-31T02:19:54;16.00;99.90
53310;DHT22;39197;53.200;5.792;2023-07-31T02:22:20;16.00;99.90
53310;DHT22;39197;53.200;5.792;2023-07-31T02:24:46;16.00;99.90
53310;DHT22;39197;53.200;5.792;2023-07-31T02:27:11;16.00;99.90
53310;DHT22;39197;53.200;5.792;2023-07-31T02:29:37;16.00;99.90
53310;DHT22;39197;53.200;5.792;2023-07-31T02:32:03;16.00;99.90
53310;DHT22;39197;53.200;5.792;2023-07-31T02:34:29;15.90;99.90
53310;DHT22;39197;53.200;5.792;2023-07-31T02:36:54;15.90;99.90
53310;DHT22;39197;53.200;5.792;2023-07-31T02:39:20;15.90;99.90
53310;DHT22;39197;53.200;5.792;2023-07-31T02:41:46;15.90;99.90
53310;DHT22;39197;53.200;5.792;2023-07-31T02:44:12;15.90;99.90
53310;DHT22;39197;53.200;5.792;2023-07-31T02:46:40;15.90;99.90
53310;DHT22;39197;53.200;5.792;2023-07-31T02:49:05;15.90;99.90
53310;DHT22;39197;53.200;5.792;2023-07-31T02:51:31;15.90;99.90
53310;DHT22;39197;53.200;5.792;2023-07-31T02:53:56;15.80;99.90
53310;DHT22;39197;53.200;5.792;2023-07-31T02:56:22;15.80;99.90
53310;DHT22;39197;53.200;5.792;2023-07-31T02:58:48;15.80;99.90
53310;DHT22;39197;53.200;5.792;2023-07-31T03:01:13;15.70;99.90
53310;DHT22;39197;53.200;5.792;2023-07-31T03:03:42;15.70;99.90
53310;DHT22;39197;53.200;5.792;2023-07-31T03:06:07;15.60;99.90
53310;DHT22;39197;53.200;5.792;2023-07-31T03:08:33;15.50;99.90
53310;DHT22;39197;53.200;5.792;2023-07-31T03:10:59;15.40;99.90
53310;DHT22;39197;53.200;5.792;2023-07-31T03:13:24;15.40;99.90
53310;DHT22;39197;53.200;5.792;2023-07-31T03:15:50;15.40;99.90
53310;DHT22;39197;53.200;5.792;2023-07-31T03:18:16;15.40;99.90
53310;DHT22;39197;53.200;5.792;2023-07-31T03:20:44;15.30;99.90
53310;DHT22;39197;53.200;5.792;2023-07-31T03:23:10;15.30;99.90
53310;DHT22;39197;53.200;5.792;2023-07-31T03:25:36;15.30;99.90
53310;DHT22;39197;53.200;5.792;2023-07-31T03:28:01;15.30;99.90
53310;DHT22;39197;53.200;5.792;2023-07-31T03:30:27;15.30;99.90
53310;DHT22;39197;53.200;5.792;2023-07-31T03:32:53;15.30;99.90
53310;DHT22;39197;53.200;5.792;2023-07-31T03:35:18;15.30;99.90
53310;DHT22;39197;53.200;5.792;2023-07-31T03:37:44;15.30;99.90
53310;DHT22;39197;53.200;5.792;2023-07-31T03:40:10;15.30;99.90
53310;DHT22;39197;53.200;5.792;2023-07-31T03:42:36;15.30;99.90
53310;DHT22;39197;53.200;5.792;2023-07-31T03:45:01;15.30;99.90
53310;DHT22;39197;53.200;5.792;2023-07-31T03:47:27;15.30;99.90
53310;DHT22;39197;53.200;5.792;2023-07-31T03:49:53;15.30;99.90
53310;DHT22;39197;53.200;5.792;2023-07-31T03:52:18;15.30;99.90
53310;DHT22;39197;53.200;5.792;2023-07-31T03:54:44;15.30;99.90
53310;DHT22;39197;53.200;5.792;2023-07-31T03:57:10;15.30;99.90
53310;DHT22;39197;53.200;5.792;2023-07-31T03:59:37;15.30;99.90
53310;DHT22;39197;53.200;5.792;2023-07-31T04:02:04;15.30;99.90
53310;DHT22;39197;53.200;5.792;2023-07-31T04:04:30;15.40;99.90
53310;DHT22;39197;53.200;5.792;2023-07-31T04:06:55;15.40;99.90
53310;DHT22;39197;53.200;5.792;2023-07-31T04:09:21;15.40;99.90
53310;DHT22;39197;53.200;5.792;2023-07-31T04:11:47;15.50;99.90
53310;DHT22;39197;53.200;5.792;2023-07-31T04:14:12;15.50;99.90
53310;DHT22;39197;53.200;5.792;2023-07-31T04:16:38;15.50;99.90
53310;DHT22;39197;53.200;5.792;2023-07-31T04:19:04;15.50;99.90
53310;DHT22;39197;53.200;5.792;2023-07-31T04:21:29;15.60;99.90
53310;DHT22;39197;53.200;5.792;2023-07-31T04:23:55;15.70;99.90
53310;DHT22;39197;53.200;5.792;2023-07-31T04:26:21;15.70;99.90
53310;DHT22;39197;53.200;5.792;2023-07-31T04:28:47;15.80;99.90
53310;DHT22;39197;53.200;5.792;2023-07-31T04:31:13;15.90;99.90
53310;DHT22;39197;53.200;5.792;2023-07-31T04:33:38;16.00;99.90
53310;DHT22;39197;53.200;5.792;2023-07-31T04:36:05;16.00;99.90
53310;DHT22;39197;53.200;5.792;2023-07-31T04:38:30;16.00;99.90
53310;DHT22;39197;53.200;5.792;2023-07-31T04:40:56;16.00;99.90
53310;DHT22;39197;53.200;5.792;2023-07-31T04:43:22;16.10;99.90
53310;DHT22;39197;53.200;5.792;2023-07-31T04:45:48;16.10;99.90
53310;DHT22;39197;53.200;5.792;2023-07-31T04:48:14;16.10;99.90
53310;DHT22;39197;53.200;5.792;2023-07-31T04:50:40;16.10;99.90
53310;DHT22;39197;53.200;5.792;2023-07-31T04:53:05;16.10;99.90
53310;DHT22;39197;53.200;5.792;2023-07-31T04:55:31;16.10;99.90
53310;DHT22;39197;53.200;5.792;2023-07-31T04:57:58;16.10;99.90
53310;DHT22;39197;53.200;5.792;2023-07-31T05:00:24;16.10;99.90
53310;DHT22;39197;53.200;5.792;2023-07-31T05:02:50;16.10;99.90
53310;DHT22;39197;53.200;5.792;2023-07-31T05:05:15;16.10;99.90
53310;DHT22;39197;53.200;5.792;2023-07-31T05:07:41;16.10;99.90
53310;DHT22;39197;53.200;5.792;2023-07-31T05:10:07;16.10;99.90
53310;DHT22;39197;53.200;5.792;2023-07-31T05:12:33;16.10;99.90
53310;DHT22;39197;53.200;5.792;2023-07-31T05:14:58;16.10;99.90
53310;DHT22;39197;53.200;5.792;2023-07-31T05:17:24;16.20;99.90
53310;DHT22;39197;53.200;5.792;2023-07-31T05:19:49;16.10;99.90
53310;DHT22;39197;53.200;5.792;2023-07-31T05:22:15;16.10;99.90
53310;DHT22;39197;53.200;5.792;2023-07-31T05:24:41;16.20;99.90
53310;DHT22;39197;53.200;5.792;2023-07-31T05:27:06;16.20;99.90
53310;DHT22;39197;53.200;5.792;2023-07-31T05:29:32;16.10;99.90
53310;DHT22;39197;53.200;5.792;2023-07-31T05:31:58;16.20;99.90
53310;DHT22;39197;53.200;5.792;2023-07-31T05:34:23;16.20;99.90
53310;DHT22;39197;53.200;5.792;2023-07-31T05:36:49;16.20;99.90
53310;DHT22;39197;53.200;5.792;2023-07-31T05:39:14;16.20;99.90
53310;DHT22;39197;53.200;5.792;2023-07-31T05:41:40;16.20;99.90
53310;DHT22;39197;53.200;5.792;2023-07-31T05:44:06;16.20;99.90
53310;DHT22;39197;53.200;5.792;2023-07-31T05:46:31;16.30;99.90
53310;DHT22;39197;53.200;5.792;2023-07-31T05:48:57;16.30;99.90
53310;DHT22;39197;53.200;5.792;2023-07-31T05:51:22;16.30;99.90
53310;DHT22;39197;53.200;5.792;2023-07-31T05:53:48;16.30;99.90
53310;DHT22;39197;53.200;5.792;2023-07-31T05:56:14;16.20;99.90
53310;DHT22;39197;53.200;5.792;2023-07-31T05:58:39;16.20;99.90
53310;DHT22;39197;53.200;5.792;2023-07-31T06:01:05;16.20;99.90
53310;DHT22;39197;53.200;5.792;2023-07-31T06:03:30;16.20;99.90
53310;DHT22;39197;53.200;5.792;2023-07-31T06:05:56;16.20;99.90
53310;DHT22;39197;53.200;5.792;2023-07-31T06:08:22;16.20;99.90
53310;DHT22;39197;53.200;5.792;2023-07-31T06:10:47;16.20;99.90
53310;DHT22;39197;53.200;5.792;2023-07-31T06:13:13;16.30;99.90
53310;DHT22;39197;53.200;5.792;2023-07-31T06:15:39;16.30;99.90
53310;DHT22;39197;53.200;5.792;2023-07-31T06:18:04;16.20;99.90
53310;DHT22;39197;53.200;5.792;2023-07-31T06:20:33;16.20;99.90
53310;DHT22;39197;53.200;5.792;2023-07-31T06:22:59;16.30;99.90
53310;DHT22;39197;53.200;5.792;2023-07-31T06:25:25;16.30;99.90
53310;DHT22;39197;53.200;5.792;2023-07-31T06:27:51;16.40;99.90
53310;DHT22;39197;53.200;5.792;2023-07-31T06:30:16;16.40;99.90
53310;DHT22;39197;53.200;5.792;2023-07-31T06:32:42;16.50;99.90
53310;DHT22;39197;53.200;5.792;2023-07-31T06:35:08;16.40;99.90
53310;DHT22;39197;53.200;5.792;2023-07-31T06:37:34;16.50;99.90
53310;DHT22;39197;53.200;5.792;2023-07-31T06:39:59;16.50;99.90
53310;DHT22;39197;53.200;5.792;2023-07-31T06:42:25;16.50;99.90
53310;DHT22;39197;53.200;5.792;2023-07-31T06:44:50;16.40;99.90
53310;DHT22;39197;53.200;5.792;2023-07-31T06:47:16;16.40;99.90
53310;DHT22;39197;53.200;5.792;2023-07-31T06:49:42;16.40;99.90
53310;DHT22;39197;53.200;5.792;2023-07-31T06:52:07;16.50;99.90
53310;DHT22;39197;53.200;5.792;2023-07-31T06:54:33;16.40;99.90
53310;DHT22;39197;53.200;5.792;2023-07-31T06:56:58;16.50;99.90
53310;DHT22;39197;53.200;5.792;2023-07-31T06:59:24;16.50;99.90
53310;DHT22;39197;53.200;5.792;2023-07-31T07:01:49;16.40;99.90
53310;DHT22;39197;53.200;5.792;2023-07-31T07:04:15;16.50;99.90
53310;DHT22;39197;53.200;5.792;2023-07-31T07:06:41;16.50;99.90
53310;DHT22;39197;53.200;5.792;2023-07-31T07:09:07;16.40;99.90
53310;DHT22;39197;53.200;5.792;2023-07-31T07:11:33;16.50;99.90
53310;DHT22;39197;53.200;5.792;2023-07-31T07:13:59;16.50;99.90
53310;DHT22;39197;53.200;5.792;2023-07-31T07:16:25;16.50;99.90
53310;DHT22;39197;53.200;5.792;2023-07-31T07:18:51;16.50;99.90
53310;DHT22;39197;53.200;5.792;2023-07-31T07:21:17;16.60;99.90
53310;DHT22;39197;53.200;5.792;2023-07-31T07:23:43;16.60;99.90
53310;DHT22;39197;53.200;5.792;2023-07-31T07:26:09;16.70;99.90
53310;DHT22;39197;53.200;5.792;2023-07-31T07:28:34;16.70;99.90
53310;DHT22;39197;53.200;5.792;2023-07-31T07:31:02;16.80;99.90
53310;DHT22;39197;53.200;5.792;2023-07-31T07:33:28;16.80;99.90
53310;DHT22;39197;53.200;5.792;2023-07-31T07:35:54;16.80;99.90
53310;DHT22;39197;53.200;5.792;2023-07-31T07:38:20;16.90;99.90
53310;DHT22;39197;53.200;5.792;2023-07-31T07:40:46;16.90;99.90
53310;DHT22;39197;53.200;5.792;2023-07-31T07:43:16;16.90;99.90
53310;DHT22;39197;53.200;5.792;2023-07-31T07:45:41;16.90;99.90
53310;DHT22;39197;53.200;5.792;2023-07-31T07:48:07;16.90;99.90
53310;DHT22;39197;53.200;5.792;2023-07-31T07:50:32;16.90;99.90
53310;DHT22;39197;53.200;5.792;2023-07-31T07:52:58;17.00;99.90
53310;DHT22;39197;53.200;5.792;2023-07-31T07:55:24;16.90;99.90
53310;DHT22;39197;53.200;5.792;2023-07-31T07:57:49;17.10;99.90
53310;DHT22;39197;53.200;5.792;2023-07-31T08:00:16;17.10;99.90
53310;DHT22;39197;53.200;5.792;2023-07-31T08:02:43;17.10;99.90
53310;DHT22;39197;53.200;5.792;2023-07-31T08:05:08;17.20;99.90
53310;DHT22;39197;53.200;5.792;2023-07-31T08:07:34;17.20;99.90
53310;DHT22;39197;53.200;5.792;2023-07-31T08:10:00;17.20;99.90
53310;DHT22;39197;53.200;5.792;2023-07-31T08:12:25;17.30;99.90
53310;DHT22;39197;53.200;5.792;2023-07-31T08:14:51;17.30;99.90
53310;DHT22;39197;53.200;5.792;2023-07-31T08:17:17;17.30;99.90
53310;DHT22;39197;53.200;5.792;2023-07-31T08:19:43;17.50;99.90
53310;DHT22;39197;53.200;5.792;2023-07-31T08:22:09;17.60;99.90
53310;DHT22;39197;53.200;5.792;2023-07-31T08:24:35;17.60;99.90
53310;DHT22;39197;53.200;5.792;2023-07-31T08:27:00;17.80;99.90
53310;DHT22;39197;53.200;5.792;2023-07-31T08:29:26;18.00;99.90
53310;DHT22;39197;53.200;5.792;2023-07-31T08:31:52;18.20;99.90
53310;DHT22;39197;53.200;5.792;2023-07-31T08:34:17;18.20;99.90
53310;DHT22;39197;53.200;5.792;2023-07-31T08:36:43;18.30;99.90
53310;DHT22;39197;53.200;5.792;2023-07-31T08:39:09;18.30;99.90
53310;DHT22;39197;53.200;5.792;2023-07-31T08:41:40;18.40;99.90
53310;DHT22;39197;53.200;5.792;2023-07-31T08:44:10;18.50;99.90
53310;DHT22;39197;53.200;5.792;2023-07-31T08:46:37;18.50;99.90
53310;DHT22;39197;53.200;5.792;2023-07-31T08:49:07;18.50;99.90
53310;DHT22;39197;53.200;5.792;2023-07-31T08:51:36;18.50;99.90
53310;DHT22;39197;53.200;5.792;2023-07-31T08:54:02;18.40;99.90
53310;DHT22;39197;53.200;5.792;2023-07-31T08:56:30;18.20;99.90
53310;DHT22;39197;53.200;5.792;2023-07-31T08:58:58;18.20;99.90
53310;DHT22;39197;53.200;5.792;2023-07-31T09:01:24;18.30;99.90
53310;DHT22;39197;53.200;5.792;2023-07-31T09:03:52;18.30;99.90
53310;DHT22;39197;53.200;5.792;2023-07-31T09:06:18;18.20;99.90
53310;DHT22;39197;53.200;5.792;2023-07-31T09:08:46;18.10;99.90
53310;DHT22;39197;53.200;5.792;2023-07-31T09:11:12;18.10;99.90
53310;DHT22;39197;53.200;5.792;2023-07-31T09:13:39;18.00;99.90
53310;DHT22;39197;53.200;5.792;2023-07-31T09:16:05;18.10;99.90
53310;DHT22;39197;53.200;5.792;2023-07-31T09:18:31;18.10;99.90
53310;DHT22;39197;53.200;5.792;2023-07-31T09:21:03;18.10;99.90
53310;DHT22;39197;53.200;5.792;2023-07-31T09:23:44;18.10;99.90
53310;DHT22;39197;53.200;5.792;2023-07-31T09:26:10;17.90;99.90
53310;DHT22;39197;53.200;5.792;2023-07-31T09:28:35;17.70;99.90
53310;DHT22;39197;53.200;5.792;2023-07-31T09:31:01;17.70;99.90
53310;DHT22;39197;53.200;5.792;2023-07-31T09:33:27;17.70;99.90
53310;DHT22;39197;53.200;5.792;2023-07-31T09:35:52;17.70;99.90
53310;DHT22;39197;53.200;5.792;2023-07-31T09:38:18;17.70;99.90
53310;DHT22;39197;53.200;5.792;2023-07-31T09:40:47;17.70;99.90
53310;DHT22;39197;53.200;5.792;2023-07-31T09:43:20;17.80;99.90
53310;DHT22;39197;53.200;5.792;2023-07-31T09:45:46;17.90;99.90
53310;DHT22;39197;53.200;5.792;2023-07-31T09:48:17;18.10;99.90
53310;DHT22;39197;53.200;5.792;2023-07-31T09:50:46;18.30;99.90
53310;DHT22;39197;53.200;5.792;2023-07-31T09:53:12;18.20;99.90
53310;DHT22;39197;53.200;5.792;2023-07-31T09:55:39;18.30;99.90
53310;DHT22;39197;53.200;5.792;2023-07-31T09:58:10;18.30;99.90
53310;DHT22;39197;53.200;5.792;2023-07-31T10:00:36;18.40;99.90
53310;DHT22;39197;53.200;5.792;2023-07-31T10:03:07;18.60;99.90
53310;DHT22;39197;53.200;5.792;2023-07-31T10:05:45;18.70;99.90
53310;DHT22;39197;53.200;5.792;2023-07-31T10:08:15;18.80;99.90
53310;DHT22;39197;53.200;5.792;2023-07-31T10:10:44;18.90;99.90
53310;DHT22;39197;53.200;5.792;2023-07-31T10:13:12;19.00;99.90
53310;DHT22;39197;53.200;5.792;2023-07-31T10:15:38;19.20;99.90
53310;DHT22;39197;53.200;5.792;2023-07-31T10:18:06;19.50;99.90
53310;DHT22;39197;53.200;5.792;2023-07-31T10:20:32;19.60;99.90
53310;DHT22;39197;53.200;5.792;2023-07-31T10:22:58;19.60;99.90
53310;DHT22;39197;53.200;5.792;2023-07-31T10:25:26;19.50;99.90
53310;DHT22;39197;53.200;5.792;2023-07-31T10:27:52;19.40;99.90
53310;DHT22;39197;53.200;5.792;2023-07-31T10:30:21;19.10;99.90
53310;DHT22;39197;53.200;5.792;2023-07-31T10:32:48;19.10;99.90
53310;DHT22;39197;53.200;5.792;2023-07-31T10:35:16;18.90;99.90
53310;DHT22;39197;53.200;5.792;2023-07-31T10:37:43;18.90;99.90
53310;DHT22;39197;53.200;5.792;2023-07-31T10:40:26;18.90;99.90
53310;DHT22;39197;53.200;5.792;2023-07-31T10:42:54;19.00;99.90
53310;DHT22;39197;53.200;5.792;2023-07-31T10:45:34;19.10;99.90
53310;DHT22;39197;53.200;5.792;2023-07-31T10:48:04;19.10;99.90
53310;DHT22;39197;53.200;5.792;2023-07-31T10:50:46;19.10;99.90
53310;DHT22;39197;53.200;5.792;2023-07-31T10:53:23;19.20;99.90
53310;DHT22;39197;53.200;5.792;2023-07-31T10:55:49;19.30;99.90
53310;DHT22;39197;53.200;5.792;2023-07-31T10:58:19;19.40;99.90
53310;DHT22;39197;53.200;5.792;2023-07-31T11:00:45;19.30;99.90
53310;DHT22;39197;53.200;5.792;2023-07-31T11:03:16;19.30;99.90
53310;DHT22;39197;53.200;5.792;2023-07-31T11:10:37;19.10;99.90
53310;DHT22;39197;53.200;5.792;2023-07-31T11:13:04;19.10;99.90
53310;DHT22;39197;53.200;5.792;2023-07-31T11:15:31;19.10;99.90
53310;DHT22;39197;53.200;5.792;2023-07-31T11:17:56;19.00;99.90
53310;DHT22;39197;53.200;5.792;2023-07-31T11:20:27;18.90;99.90
53310;DHT22;39197;53.200;5.792;2023-07-31T11:22:52;19.00;99.90
53310;DHT22;39197;53.200;5.792;2023-07-31T11:25:18;19.00;99.90
53310;DHT22;39197;53.200;5.792;2023-07-31T11:27:44;19.10;99.90
53310;DHT22;39197;53.200;5.792;2023-07-31T11:30:10;19.10;99.90
53310;DHT22;39197;53.200;5.792;2023-07-31T11:32:37;19.10;99.90
53310;DHT22;39197;53.200;5.792;2023-07-31T11:35:03;18.80;99.90
53310;DHT22;39197;53.200;5.792;2023-07-31T11:37:42;18.80;99.90
53310;DHT22;39197;53.200;5.792;2023-07-31T11:40:08;18.90;99.90
53310;DHT22;39197;53.200;5.792;2023-07-31T11:42:37;19.10;99.90
53310;DHT22;39197;53.200;5.792;2023-07-31T11:45:04;19.20;99.90
53310;DHT22;39197;53.200;5.792;2023-07-31T11:47:31;19.30;99.90
53310;DHT22;39197;53.200;5.792;2023-07-31T11:49:59;19.40;99.90
53310;DHT22;39197;53.200;5.792;2023-07-31T11:52:25;19.50;99.90
53310;DHT22;39197;53.200;5.792;2023-07-31T11:54:51;19.60;99.90
53310;DHT22;39197;53.200;5.792;2023-07-31T11:57:18;19.70;99.90
53310;DHT22;39197;53.200;5.792;2023-07-31T11:59:45;19.70;99.90
53310;DHT22;39197;53.200;5.792;2023-07-31T12:02:11;19.60;99.90
53310;DHT22;39197;53.200;5.792;2023-07-31T12:04:37;19.70;99.90
53310;DHT22;39197;53.200;5.792;2023-07-31T12:07:04;19.70;99.90
53310;DHT22;39197;53.200;5.792;2023-07-31T12:09:30;19.70;99.90
53310;DHT22;39197;53.200;5.792;2023-07-31T12:11:55;19.50;99.90
53310;DHT22;39197;53.200;5.792;2023-07-31T12:14:26;19.60;99.90
53310;DHT22;39197;53.200;5.792;2023-07-31T12:16:58;19.70;99.90
53310;DHT22;39197;53.200;5.792;2023-07-31T12:19:27;19.60;99.90
53310;DHT22;39197;53.200;5.792;2023-07-31T12:21:55;19.60;99.90
53310;DHT22;39197;53.200;5.792;2023-07-31T12:24:21;19.60;99.90
53310;DHT22;39197;53.200;5.792;2023-07-31T12:26:48;19.60;99.90
53310;DHT22;39197;53.200;5.792;2023-07-31T12:29:14;19.70;99.90
53310;DHT22;39197;53.200;5.792;2023-07-31T12:31:41;19.60;99.90
53310;DHT22;39197;53.200;5.792;2023-07-31T12:34:17;19.50;99.90
53310;DHT22;39197;53.200;5.792;2023-07-31T12:36:44;19.50;99.90
53310;DHT22;39197;53.200;5.792;2023-07-31T12:39:10;19.50;99.90
53310;DHT22;39197;53.200;5.792;2023-07-31T12:41:35;19.50;99.90
53310;DHT22;39197;53.200;5.792;2023-07-31T12:44:01;19.50;99.90
53310;DHT22;39197;53.200;5.792;2023-07-31T12:46:28;19.40;99.90
53310;DHT22;39197;53.200;5.792;2023-07-31T12:48:54;19.50;99.90
53310;DHT22;39197;53.200;5.792;2023-07-31T12:51:20;19.40;99.90
53310;DHT22;39197;53.200;5.792;2023-07-31T12:53:46;19.50;99.90
53310;DHT22;39197;53.200;5.792;2023-07-31T12:56:12;19.50;99.90
53310;DHT22;39197;53.200;5.792;2023-07-31T12:58:37;19.50;99.90
53310;DHT22;39197;53.200;5.792;2023-07-31T13:01:03;19.50;99.90
53310;DHT22;39197;53.200;5.792;2023-07-31T13:03:29;19.50;99.90
53310;DHT22;39197;53.200;5.792;2023-07-31T13:05:55;19.50;99.90
53310;DHT22;39197;53.200;5.792;2023-07-31T13:08:20;19.70;99.90
53310;DHT22;39197;53.200;5.792;2023-07-31T13:10:46;19.70;99.90
53310;DHT22;39197;53.200;5.792;2023-07-31T13:13:12;19.80;99.90
53310;DHT22;39197;53.200;5.792;2023-07-31T13:15:37;19.90;99.90
53310;DHT22;39197;53.200;5.792;2023-07-31T13:18:03;19.90;99.90
53310;DHT22;39197;53.200;5.792;2023-07-31T13:20:29;20.00;99.90
53310;DHT22;39197;53.200;5.792;2023-07-31T13:22:55;20.10;99.90
53310;DHT22;39197;53.200;5.792;2023-07-31T13:25:20;20.20;99.90
53310;DHT22;39197;53.200;5.792;2023-07-31T13:27:46;20.20;99.90
53310;DHT22;39197;53.200;5.792;2023-07-31T13:30:12;20.30;99.90
53310;DHT22;39197;53.200;5.792;2023-07-31T13:32:37;20.40;99.90
53310;DHT22;39197;53.200;5.792;2023-07-31T13:35:08;20.40;99.90
53310;DHT22;39197;53.200;5.792;2023-07-31T13:37:34;20.50;99.90
53310;DHT22;39197;53.200;5.792;2023-07-31T13:40:00;20.50;99.90
53310;DHT22;39197;53.200;5.792;2023-07-31T13:42:26;20.50;99.90
53310;DHT22;39197;53.200;5.792;2023-07-31T13:44:54;20.40;99.90
53310;DHT22;39197;53.200;5.792;2023-07-31T13:47:21;20.40;99.90
53310;DHT22;39197;53.200;5.792;2023-07-31T13:49:47;20.30;99.90
53310;DHT22;39197;53.200;5.792;2023-07-31T13:52:12;20.30;99.90
53310;DHT22;39197;53.200;5.792;2023-07-31T13:54:38;20.20;99.90
53310;DHT22;39197;53.200;5.792;2023-07-31T13:57:04;20.10;99.90
53310;DHT22;39197;53.200;5.792;2023-07-31T13:59:30;20.00;99.90
53310;DHT22;39197;53.200;5.792;2023-07-31T14:01:57;19.80;99.90
53310;DHT22;39197;53.200;5.792;2023-07-31T14:04:23;19.70;99.90
53310;DHT22;39197;53.200;5.792;2023-07-31T14:06:49;19.50;99.90
53310;DHT22;39197;53.200;5.792;2023-07-31T14:09:16;19.70;99.90
53310;DHT22;39197;53.200;5.792;2023-07-31T14:11:42;19.80;99.90
53310;DHT22;39197;53.200;5.792;2023-07-31T14:14:09;19.70;99.90
53310;DHT22;39197;53.200;5.792;2023-07-31T14:16:35;19.80;99.90
53310;DHT22;39197;53.200;5.792;2023-07-31T14:19:01;19.60;99.90
53310;DHT22;39197;53.200;5.792;2023-07-31T14:21:26;19.60;99.90
53310;DHT22;39197;53.200;5.792;2023-07-31T14:23:52;19.60;99.90
53310;DHT22;39197;53.200;5.792;2023-07-31T14:26:18;19.60;99.90
53310;DHT22;39197;53.200;5.792;2023-07-31T14:28:44;19.60;99.90
53310;DHT22;39197;53.200;5.792;2023-07-31T14:31:09;19.60;99.90
53310;DHT22;39197;53.200;5.792;2023-07-31T14:33:35;19.50;99.90
53310;DHT22;39197;53.200;5.792;2023-07-31T14:36:01;19.50;99.90
53310;DHT22;39197;53.200;5.792;2023-07-31T14:38:26;19.50;99.90
53310;DHT22;39197;53.200;5.792;2023-07-31T14:40:52;19.50;99.90
53310;DHT22;39197;53.200;5.792;2023-07-31T14:43:18;19.40;99.90
53310;DHT22;39197;53.200;5.792;2023-07-31T14:45:43;19.50;99.90
53310;DHT22;39197;53.200;5.792;2023-07-31T14:48:11;19.40;99.90
53310;DHT22;39197;53.200;5.792;2023-07-31T14:50:37;19.40;99.90
53310;DHT22;39197;53.200;5.792;2023-07-31T14:53:03;19.30;99.90
53310;DHT22;39197;53.200;5.792;2023-07-31T14:55:28;19.30;99.90
53310;DHT22;39197;53.200;5.792;2023-07-31T14:57:54;19.30;99.90
53310;DHT22;39197;53.200;5.792;2023-07-31T15:00:20;19.30;99.90
53310;DHT22;39197;53.200;5.792;2023-07-31T15:02:45;19.20;99.90
53310;DHT22;39197;53.200;5.792;2023-07-31T15:05:11;19.10;99.90
53310;DHT22;39197;53.200;5.792;2023-07-31T15:07:37;19.00;99.90
53310;DHT22;39197;53.200;5.792;2023-07-31T15:10:03;19.00;99.90
53310;DHT22;39197;53.200;5.792;2023-07-31T15:12:29;19.00;99.90
53310;DHT22;39197;53.200;5.792;2023-07-31T15:14:54;19.00;99.90
53310;DHT22;39197;53.200;5.792;2023-07-31T15:17:20;19.00;99.90
53310;DHT22;39197;53.200;5.792;2023-07-31T15:19:46;19.00;99.90
53310;DHT22;39197;53.200;5.792;2023-07-31T15:22:11;19.00;99.90
53310;DHT22;39197;53.200;5.792;2023-07-31T15:24:37;19.00;99.90
53310;DHT22;39197;53.200;5.792;2023-07-31T15:27:03;19.10;99.90
53310;DHT22;39197;53.200;5.792;2023-07-31T15:29:30;19.20;99.90
53310;DHT22;39197;53.200;5.792;2023-07-31T15:31:55;19.10;99.90
53310;DHT22;39197;53.200;5.792;2023-07-31T15:34:21;19.20;99.90
53310;DHT22;39197;53.200;5.792;2023-07-31T15:36:47;19.10;99.90